Port Augusta West, Australia
Current Conditions -  °F | °C
As of 1:00 AM on Saturday 01 Nov 2014 (Local Time) from YWHA Reporting Station
Overcast Overcast  
Wind Chill: 63°   Ceiling: 2600
Heat Index: 63°   Visibility: 6mi
Dew Point: 54°   Wind: 15mph
Humidity: 72%   Direction: 220°SW
Pressure: 29.8"   Gusts: NA
Location:  32.48°S, 137.76°E
Report Text: YWHA 311500Z AUTO 22013KT 9999 // BKN026 OVC035 17/12 Q1009
Loading
Personal Weather Stations






























Interactive Weather Map
Tropical Storm Tracking
New forecast layout! Learn more

10-Day Weather Forecast

Advertisements
Track Severe Weather on mobile